Latest Coastal Weather Observations for Montague Island

IDN60701

Issued at 2:01 am EST Tuesday 7 July 2015 (issued every 10 minutes, with the page automatically refreshed every 10 minutes)

About coastal observations | Map of coastal stations | Coastal observations for NSW | Marine services | Other Formats
Station Details ID: 069017 Name: MONTAGUE ISLAND LIGHTHOUSE Lat: -36.25 Lon: 150.23 Height: 52.0 m
Data from the previous 72 hours. | See also: Recent months at Montague Island
Date/Time
EST
Temp

°C
Wind Pressure Rain
since 9am
mm
Weather Cloud Vis
km
Sea
Height
m
Swell
Dir
 
Speed
knots
Gust
knots
hPa Trend Height
m
Period
s
Dir
07/02:00am 12.7 SW 13 16 1016.0 - 0.0 - - - - - - -
07/01:30am 12.5 SW 12 15 1015.6 - 0.0 - - - - - - -
07/01:00am 12.4 SW 11 13 1015.5 - 0.0 - - - - - - -
07/12:30am 12.2 WSW 10 13 1015.3 - 0.0 - - - - - - -
07/12:00am 12.6 SW 8 11 1015.4 - 0.0 - - - - - - -
 
Date/Time
EST
Temp

°C
Wind Pressure Rain
since 9am
mm
Weather Cloud Vis
km
Sea
Height
m
Swell
Dir
 
Speed
knots
Gust
knots
hPa Trend Height
m
Period
s
Dir
06/11:30pm 12.5 SW 9 11 1015.3 - 0.0 - - - - - - -
06/11:00pm 12.3 SSW 7 9 1015.5 - 0.0 - - - - - - -
06/10:30pm 12.2 WSW 7 9 1015.3 - 0.0 - - - - - - -
06/10:00pm 11.9 W 9 11 1015.1 - 0.0 - - - - - - -
06/09:30pm 12.9 WSW 11 14 1014.9 - 0.0 - - - - - - -
06/09:00pm 12.5 W 7 9 1014.9 - 0.0 - - - - - - -
06/08:30pm 12.4 W 7 9 1014.8 - 0.0 - - - - - - -
06/08:00pm 12.9 W 9 11 1014.9 - 0.0 - - - - - - -
06/07:30pm 12.1 W 11 14 1014.9 - 0.0 - - - - - - -
06/07:00pm 12.7 WSW 24 28 1014.6 - 0.0 - - - - - - -
06/06:30pm 14.2 SW 23 26 1014.1 - 0.0 - - - - - - -
06/06:20pm 14.6 SW 17 24 1014.0 - 0.0 - - - - - - -
06/06:00pm 14.8 WSW 11 14 1013.9 - 0.0 - - - - - - -
06/05:30pm 14.9 WSW 9 12 1013.6 - 0.0 - - - - - - -
06/05:00pm 14.8 SSW 9 13 1013.2 - 0.0 - - - - - - -
06/04:30pm 14.7 S 9 12 1013.1 - 0.0 - - - - - - -
06/04:00pm 15.1 S 9 12 1013.0 - 0.0 - - - - - - -
06/03:30pm 15.0 S 11 14 1012.9 - 0.0 - - - - - - -
06/03:00pm 15.2 S 12 15 1012.8 - 0.0 - - - - - - -
06/02:30pm 15.8 S 12 15 1012.7 - 0.0 - - - - - - -
06/02:00pm 15.9 SSW 13 17 1012.6 - 0.0 - - - - - - -
06/01:30pm 15.9 SSW 12 16 1012.6 - 0.0 - - - - - - -
06/01:00pm 16.0 SSW 11 16 1013.0 - 0.0 - - - - - - -
06/12:30pm 15.4 SSW 10 13 1013.1 - 0.0 - - - - - - -
06/12:00pm 15.3 SW 12 16 1013.4 - 0.0 - - - - - - -
06/11:30am 15.1 SSW 12 16 1013.8 - 0.0 - - - - - - -
06/11:00am 15.1 SW 13 17 1014.1 - 0.0 - - - - - - -
06/10:30am 15.0 SW 13 17 1014.3 - 0.0 - - - - - - -
06/10:00am 15.1 SW 13 16 1014.6 - 0.0 - - - - - - -
06/09:30am 13.9 SW 9 13 1014.6 - 0.0 - - - - - - -
06/09:00am 13.2 WSW 8 10 1014.5 - 0.0 - - - - - - -
06/08:30am 11.7 WSW 7 8 1014.4 - 0.0 - - - - - - -
06/08:00am 11.4 W 7 9 1014.4 - 0.0 - - - - - - -
06/07:30am 11.2 WSW 7 8 1014.2 - 0.0 - - - - - - -
06/07:00am 11.1 WSW 9 10 1014.1 - 0.0 - - - - - - -
06/06:30am 11.0 W 9 11 1014.0 - 0.0 - - - - - - -
06/06:00am 11.1 W 11 13 1013.9 - 0.0 - - - - - - -
06/05:30am 11.3 W 12 13 1013.9 - 0.0 - - - - - - -
06/05:00am 11.6 W 10 13 1014.0 - 0.0 - - - - - - -
06/04:30am 11.6 W 8 9 1014.1 - 0.0 - - - - - - -
06/04:00am 12.5 WSW 7 9 1014.2 - 0.0 - - - - - - -
06/03:30am 12.7 WSW 6 6 1014.4 - 0.0 - - - - - - -
06/03:00am 12.1 WSW 6 8 1014.7 - 0.0 - - - - - - -
06/02:30am 12.0 W 7 8 1015.1 - 0.0 - - - - - - -
06/02:00am 12.2 W 7 8 1015.3 - 0.0 - - - - - - -
06/01:30am 12.5 WSW 7 9 1015.4 - 0.0 - - - - - - -
06/01:00am 13.4 WSW 9 10 1015.6 - 0.0 - - - - - - -
06/12:30am 13.5 SW 10 12 1015.9 - 0.0 - - - - - - -
06/12:00am 13.5 SW 10 12 1016.1 - 0.0 - - - - - - -
 
Date/Time
EST
Temp

°C
Wind Pressure Rain
since 9am
mm
Weather Cloud Vis
km
Sea
Height
m
Swell
Dir
 
Speed
knots
Gust
knots
hPa Trend Height
m
Period
s
Dir
05/11:30pm 13.7 SW 10 12 1016.2 - 0.0 - - - - - - -
05/11:00pm 13.6 SW 9 11 1016.4 - 0.0 - - - - - - -
05/10:30pm 13.6 SW 9 11 1016.4 - 0.0 - - - - - - -
05/10:00pm 13.4 SW 6 8 1016.5 - 0.0 - - - - - - -
05/09:30pm 13.5 SW 6 8 1016.9 - 0.0 - - - - - - -
05/09:00pm 13.4 SW 6 8 1016.9 - 0.0 - - - - - - -
05/08:30pm 13.2 SW 6 7 1017.1 - 0.0 - - - - - - -
05/08:00pm 13.6 WSW 6 7 1017.2 - 0.0 - - - - - - -
05/07:30pm 13.8 WSW 5 6 1017.1 - 0.0 - - - - - - -
05/07:00pm 14.5 WSW 3 4 1016.9 - 0.0 - - - - - - -
05/06:30pm 14.7 W 2 3 1016.9 - 0.0 - - - - - - -
05/06:00pm 15.1 NNW 3 4 1016.9 - 0.0 - - - - - - -
05/05:30pm 15.0 N 4 6 1016.7 - 0.0 - - - - - - -
05/05:00pm 15.0 NNE 5 7 1016.5 - 0.0 - - - - - - -
05/04:30pm 15.2 NNE 6 8 1016.5 - 0.0 - - - - - - -
05/04:00pm 15.3 NNE 5 7 1016.5 - 0.0 - - - - - - -
05/03:30pm 15.6 NNE 7 8 1016.3 - 0.0 - - - - - - -
05/03:00pm 15.7 NE 6 7 1016.5 - 0.0 - - - - - - -
05/02:30pm 15.6 NNE 6 8 1016.7 - 0.0 - - - - - - -
05/02:00pm 15.8 NNE 5 7 1017.1 - 0.0 - - - - - - -
05/01:30pm 15.7 N 5 8 1017.0 - 0.0 - - - - - - -
05/01:00pm 16.1 NNE 4 6 1017.3 - 0.0 - - - - - - -
05/12:30pm 15.4 N 6 8 1017.7 - 0.0 - - - - - - -
05/12:00pm 15.4 N 7 10 1018.2 - 0.0 - - - - - - -
05/11:30am 14.8 NNW 8 10 1018.8 - 0.0 - - - - - - -
05/11:00am 15.3 N 7 11 1019.4 - 0.0 - - - - - - -
05/10:30am 15.1 NNW 7 9 1019.8 - 0.0 - - - - - - -
05/10:00am 14.7 NNW 9 11 1020.0 - 0.0 - - - - - - -
05/09:30am 14.6 NW 6 8 1019.9 - 0.0 - - - - - - -
05/09:00am 13.8 NW 6 7 1019.8 - 0.0 - - - - - - -
05/08:30am 13.0 NW 8 10 1019.8 - 0.0 - - - - - - -
05/08:00am 13.0 NW 7 9 1019.9 - 0.0 - - - - - - -
05/07:30am 12.1 NW 10 12 1019.8 - 0.0 - - - - - - -
05/07:00am 11.4 WNW 7 9 1019.5 - 0.0 - - - - - - -
05/06:30am 11.3 W 7 9 1019.5 - 0.0 - - - - - - -
05/06:00am 11.9 WNW 9 11 1019.3 - 0.0 - - - - - - -
05/05:30am 12.1 WNW 7 9 1019.2 - 0.0 - - - - - - -
05/05:00am 12.0 WNW 6 7 1019.1 - 0.0 - - - - - - -
05/04:30am 12.2 WNW 8 10 1019.2 - 0.0 - - - - - - -
05/04:00am 12.5 WNW 9 12 1019.2 - 0.0 - - - - - - -
05/03:30am 12.4 W 8 10 1019.2 - 0.0 - - - - - - -
05/03:00am 12.0 W 6 7 1019.3 - 0.0 - - - - - - -
05/02:30am 11.9 W 9 11 1019.5 - 0.0 - - - - - - -
05/02:00am 11.9 WNW 8 10 1019.6 - 0.0 - - - - - - -
05/01:30am 11.9 NW 8 9 1019.7 - 0.0 - - - - - - -
05/01:00am 12.0 NW 8 11 1019.5 - 0.0 - - - - - - -
05/12:30am 11.9 NW 7 9 1019.7 - 0.0 - - - - - - -
05/12:00am 11.8 NW 9 11 1019.9 - 0.0 - - - - - - -
 
Date/Time
EST
Temp

°C
Wind Pressure Rain
since 9am
mm
Weather Cloud Vis
km
Sea
Height
m
Swell
Dir
 
Speed
knots
Gust
knots
hPa Trend Height
m
Period
s
Dir
04/11:30pm 11.7 NW 7 8 1020.1 - 0.0 - - - - - - -
04/11:00pm 11.7 WNW 8 10 1020.2 - 0.0 - - - - - - -
04/10:30pm 12.2 NW 8 11 1020.2 - 0.0 - - - - - - -
04/10:00pm 12.0 NW 8 10 1020.2 - 0.0 - - - - - - -
04/09:30pm 12.2 NW 9 11 1020.1 - 0.0 - - - - - - -
04/09:00pm 12.1 NW 8 9 1020.2 - 0.0 - - - - - - -
04/08:30pm 12.3 NW 8 11 1020.3 - 0.0 - - - - - - -
04/08:00pm 12.4 NW 8 10 1020.2 - 0.0 - - - - - - -
04/07:30pm 12.6 NW 8 11 1020.2 - 0.0 - - - - - - -
04/07:00pm 13.2 NNW 7 9 1020.2 - 0.0 - - - - - - -
04/06:30pm 13.1 NNW 6 9 1020.0 - 0.0 - - - - - - -
04/06:00pm 13.2 NNW 7 9 1019.8 - 0.0 - - - - - - -
04/05:30pm 12.7 N 7 8 1019.7 - 0.0 - - - - - - -
04/05:00pm 12.6 N 6 7 1019.7 - 0.0 - - - - - - -
04/04:30pm 12.5 N 5 6 1019.6 - 0.0 - - - - - - -
04/04:00pm 12.5 NNW 3 5 1019.6 - 0.0 - - - - - - -
04/03:30pm 12.7 N 2 4 1019.6 - 0.0 - - - - - - -
04/03:00pm 13.2 NNW 2 4 1019.6 - 0.0 - - - - - - -
04/02:30pm 13.7 NW 3 5 1019.6 - 0.0 - - - - - - -
04/02:00pm 14.2 WNW 2 5 1019.6 - 0.0 - - - - - - -
04/01:30pm 13.6 WSW 3 5 1019.6 - 0.0 - - - - - - -
04/01:00pm 14.2 W 4 7 1019.9 - 0.0 - - - - - - -
04/12:30pm 12.8 SW 5 7 1020.2 - 0.0 - - - - - - -
04/12:00pm 13.4 W 4 7 1020.6 - 0.0 - - - - - - -
04/11:30am 12.7 W 6 10 1021.1 - 0.0 - - - - - - -
04/11:00am 12.5 WSW 9 11 1021.4 - 0.0 - - - - - - -
04/10:30am 12.0 SW 10 13 1021.7 - 0.0 - - - - - - -
04/10:00am 10.9 SW 12 15 1021.8 - 0.0 - - - - - - -
04/09:30am 11.1 SW 10 13 1021.6 - 0.0 - - - - - - -
04/09:00am 10.2 SW 13 15 1021.5 - 0.0 - - - - - - -
04/08:30am 9.8 SW 14 17 1021.3 - 0.0 - - - - - - -
04/08:00am 9.8 SW 14 18 1021.1 - 0.0 - - - - - - -
04/07:30am 9.7 SW 14 18 1021.2 - 0.0 - - - - - - -
04/07:00am 9.7 SW 14 16 1021.3 - 0.0 - - - - - - -
04/06:30am 9.6 SW 13 16 1021.1 - 0.0 - - - - - - -
04/06:00am 9.6 SW 10 13 1020.9 - 0.0 - - - - - - -
04/05:30am 9.3 SW 8 12 1020.5 - 0.0 - - - - - - -
04/05:00am 9.2 SSW 8 11 1020.5 - 0.0 - - - - - - -
04/04:30am 9.2 SW 8 10 1020.8 - 0.0 - - - - - - -
04/04:00am 9.3 SSW 9 11 1020.8 - 0.0 - - - - - - -
04/03:30am 9.3 SSW 8 10 1021.1 - 0.0 - - - - - - -
04/03:00am 9.4 SW 5 7 1021.5 - 0.0 - - - - - - -
04/02:30am 9.5 WSW 5 7 1021.8 - 0.0 - - - - - - -

Other Formats:

Comma delimited format used in spreadsheet applications
http://www.bom.gov.au/fwo/IDN60701/IDN60701.94939.axf

JavaScript Object Notation format (JSON) in row-major order
http://www.bom.gov.au/fwo/IDN60701/IDN60701.94939.json